Terminal Aerodrome Forecast
Issued by NWS

Home | Current Version | Previous Version | Text Only | Print | Product List | Glossary On
Versions: 1 2 3 4 5 6 7 8 9 10 11 12 13 14 15 16
000
FTUS43 KMQT 210604 AAA
TAFSAW
TAF AMD
KSAW 210604Z 2106/2206 00000KT 2SM BR OVC007
     FM211500 00000KT 1/2SM FG OVC010
     FM211600 00000KT 1SM BR OVC010
     FM212100 03005KT 6SM BR OVC020
     FM220300 03006KT 1SM BR OVC003=

USA.gov is the U.S. government's official web portal to all federal, state and local government web resources and services.